Time;durP1;ratioP1;P1;durP2;ratioP2;P2;SDS_P1;SDS_P2;PMS_P1;PMS_P2;Temp;Humidity;BMP_temperature;BMP_pressure;BME280_temperature;BME280_humidity;BME280_pressure;Samples;Min_cycle;Max_cycle;Signal;HPM_P1;HPM_P2
2021/07/29 00:00:51;;;;;;;5.00;2.28;;;;;;;22.52;53.46;100768.19;5098948;28;20473;-70
2021/07/29 00:03:16;;;;;;;3.40;1.88;;;;;;;22.52;53.61;100773.47;5081883;28;20374;-71
2021/07/29 00:05:42;;;;;;;3.22;1.58;;;;;;;22.51;53.54;100774.38;5081847;28;20070;-70
2021/07/29 00:08:07;;;;;;;5.00;1.70;;;;;;;22.46;53.63;100765.69;5098723;28;20031;-71
2021/07/29 00:10:32;;;;;;;2.40;1.50;;;;;;;22.52;53.54;100772.59;5081714;28;20035;-71
2021/07/29 00:12:58;;;;;;;3.80;2.50;;;;;;;22.51;53.60;100768.22;5117113;28;20024;-71
2021/07/29 00:15:24;;;;;;;3.97;1.83;;;;;;;22.46;53.63;100756.00;5117028;28;20028;-71
2021/07/29 00:20:21;;;;;;;3.30;1.73;;;;;;;22.51;53.54;100760.31;5116884;28;20012;-71
2021/07/29 00:22:54;;;;;;;3.80;2.20;;;;;;;22.45;53.69;100750.81;5098819;28;20429;-72
2021/07/29 00:25:20;;;;;;;2.53;1.65;;;;;;;22.45;53.29;100749.03;5099649;28;20055;-72
2021/07/29 00:27:46;;;;;;;3.25;1.55;;;;;;;22.46;53.67;100737.56;5098437;28;20031;-72
2021/07/29 00:30:14;;;;;;;2.75;1.40;;;;;;;22.49;53.68;100747.16;5116555;28;20363;-73
2021/07/29 00:32:41;;;;;;;2.90;2.03;;;;;;;22.48;53.79;100739.31;5098583;28;20043;-72
2021/07/29 00:35:08;;;;;;;3.03;1.90;;;;;;;22.48;53.72;100740.16;5098201;28;20024;-73
2021/07/29 00:37:35;;;;;;;2.30;1.63;;;;;;;22.48;53.89;100729.63;5116497;28;20475;-73
2021/07/29 00:40:02;;;;;;;3.70;1.90;;;;;;;22.48;53.85;100726.13;5116370;28;20373;-73
2021/07/29 00:42:27;;;;;;;2.88;1.70;;;;;;;22.48;53.86;100737.53;5098582;28;20127;-73
2021/07/29 00:44:52;;;;;;;4.63;1.80;;;;;;;22.45;53.82;100722.69;5116396;28;20503;-72
2021/07/29 00:47:19;;;;;;;3.40;1.42;;;;;;;22.49;53.81;100733.13;5080900;28;20027;-72
2021/07/29 00:49:46;;;;;;;2.80;1.70;;;;;;;22.46;53.93;100724.38;5097722;28;20054;-73
2021/07/29 00:52:14;;;;;;;5.00;1.77;;;;;;;22.45;53.84;100709.50;5081257;28;20031;-73
2021/07/29 00:54:39;;;;;;;4.65;1.55;;;;;;;22.49;53.97;100734.00;5116242;28;20069;-72
2021/07/29 00:57:05;;;;;;;2.40;1.55;;;;;;;22.50;53.97;100766.50;5098172;28;20184;-73
2021/07/29 00:59:31;;;;;;;4.07;2.33;;;;;;;22.48;54.12;100765.66;5081213;28;20034;-72
2021/07/29 01:01:56;;;;;;;2.78;1.80;;;;;;;22.51;54.22;100789.31;5116744;28;20035;-72
2021/07/29 01:04:25;;;;;;;2.97;2.00;;;;;;;22.49;54.09;100770.03;5117457;28;20032;-72
2021/07/29 01:06:50;;;;;;;3.13;1.48;;;;;;;22.49;54.24;100776.16;5116985;28;20111;-72
2021/07/29 01:09:16;;;;;;;5.30;2.17;;;;;;;22.49;54.05;100767.38;5116220;28;20116;-72
2021/07/29 01:11:43;;;;;;;3.70;2.08;;;;;;;22.49;54.14;100764.75;5115930;28;20047;-72
2021/07/29 01:14:09;;;;;;;3.80;1.88;;;;;;;22.48;54.27;100770.91;5116076;28;20533;-72
2021/07/29 01:16:35;;;;;;;3.05;1.50;;;;;;;22.48;54.24;100768.28;5097537;28;20027;-72
2021/07/29 01:19:01;;;;;;;2.58;1.90;;;;;;;22.46;54.01;100770.94;5097315;28;20049;-72
2021/07/29 01:21:30;;;;;;;3.10;1.95;;;;;;;22.49;54.21;100780.56;5097545;28;20051;-72
2021/07/29 01:23:56;;;;;;;2.78;1.70;;;;;;;22.48;54.36;100784.09;5115735;28;20384;-72
2021/07/29 01:26:22;;;;;;;2.40;1.20;;;;;;;22.46;54.21;100757.78;5115875;28;20043;-72
2021/07/29 01:28:48;;;;;;;3.30;1.77;;;;;;;22.44;54.36;100756.97;5097447;28;20038;-72
2021/07/29 01:31:13;;;;;;;2.67;1.40;;;;;;;22.48;54.31;100769.16;5080407;28;20470;-71
2021/07/29 01:33:39;;;;;;;2.22;1.30;;;;;;;22.48;54.34;100757.75;5080250;28;20031;-71
2021/07/29 01:36:05;;;;;;;2.67;1.52;;;;;;;22.45;54.26;100754.31;5097006;28;20453;-71
2021/07/29 01:38:31;;;;;;;3.15;1.70;;;;;;;22.48;54.39;100752.47;5115330;28;20063;-71
2021/07/29 01:40:57;;;;;;;3.28;1.80;;;;;;;22.44;54.30;100747.28;5115321;28;20080;-72
2021/07/29 01:43:23;;;;;;;2.33;1.40;;;;;;;22.45;54.47;100751.66;5097169;28;20057;-72
2021/07/29 01:45:48;;;;;;;2.17;1.60;;;;;;;22.47;54.34;100756.88;5096872;28;20031;-72
2021/07/29 01:48:14;;;;;;;1.50;1.15;;;;;;;22.44;54.43;100743.78;5115356;28;20089;-72
2021/07/29 01:50:39;;;;;;;2.97;1.95;;;;;;;22.45;54.61;100746.41;5078922;28;20075;-72
2021/07/29 01:53:04;;;;;;;1.60;1.00;;;;;;;22.46;54.36;100749.88;5115025;28;20062;-72
2021/07/29 01:55:30;;;;;;;2.40;1.30;;;;;;;22.45;54.44;100749.03;5115160;28;20039;-72
2021/07/29 01:57:55;;;;;;;2.55;1.42;;;;;;;22.44;54.42;100742.03;5115102;28;20031;-72
2021/07/29 02:00:22;;;;;;;3.10;1.75;;;;;;;22.45;54.54;100740.25;5096595;28;20023;-72
2021/07/29 02:02:48;;;;;;;4.05;1.58;;;;;;;22.45;54.45;100741.13;5114695;28;20024;-72
2021/07/29 02:05:13;;;;;;;2.55;1.50;;;;;;;22.42;54.48;100742.97;5096511;28;20042;-72
2021/07/29 02:07:38;;;;;;;5.88;1.80;;;;;;;22.45;54.55;100750.81;5079937;28;20024;-72
2021/07/29 02:10:04;;;;;;;2.85;1.30;;;;;;;22.43;54.68;100747.34;5096424;28;20496;-72
2021/07/29 02:12:30;;;;;;;2.13;1.52;;;;;;;22.41;54.63;100742.09;5079436;28;20040;-72
2021/07/29 02:14:56;;;;;;;2.10;1.45;;;;;;;22.44;54.55;100747.28;5114951;28;20027;-72
2021/07/29 02:17:22;;;;;;;2.85;1.27;;;;;;;22.39;54.50;100741.25;5115194;28;20106;-72
2021/07/29 02:19:47;;;;;;;2.67;1.52;;;;;;;22.43;54.66;100750.84;5098168;28;20047;-72
2021/07/29 02:22:13;;;;;;;2.85;1.85;;;;;;;22.44;54.60;100747.28;5098476;28;20035;-73
2021/07/29 02:24:39;;;;;;;1.58;1.10;;;;;;;22.43;54.60;100756.09;5098235;28;20034;-73
2021/07/29 02:27:05;;;;;;;2.40;1.40;;;;;;;22.42;54.70;100748.22;5117478;28;20023;-72
2021/07/29 02:29:30;;;;;;;2.47;1.40;;;;;;;22.42;54.56;100757.00;5099029;28;20038;-73
2021/07/29 02:31:55;;;;;;;1.85;1.25;;;;;;;22.44;54.60;100756.97;5099266;28;20538;-73
2021/07/29 02:34:21;;;;;;;4.10;1.88;;;;;;;22.43;54.71;100753.47;5097215;28;20469;-72
2021/07/29 02:36:46;;;;;;;1.98;1.23;;;;;;;22.43;54.39;100769.28;5096835;28;20054;-72
2021/07/29 02:39:11;;;;;;;2.70;1.63;;;;;;;22.42;54.70;100756.13;5096504;28;20462;-73
2021/07/29 02:41:37;;;;;;;1.98;1.33;;;;;;;22.37;54.78;100750.94;5096725;28;20046;-73
2021/07/29 02:44:03;;;;;;;2.10;1.30;;;;;;;22.42;54.69;100762.28;5115052;28;20032;-72
2021/07/29 02:46:29;;;;;;;2.78;1.50;;;;;;;22.38;54.75;100763.22;5079953;28;20091;-73
2021/07/29 02:48:55;;;;;;;2.65;2.30;;;;;;;22.40;54.83;100761.44;5096380;28;20031;-73
2021/07/29 02:51:20;;;;;;;2.08;0.98;;;;;;;22.41;54.69;100763.16;5114475;28;20042;-72
2021/07/29 02:53:46;;;;;;;1.83;1.48;;;;;;;22.38;54.58;100762.38;5114696;28;20077;-73
2021/07/29 02:56:11;;;;;;;2.38;1.55;;;;;;;22.40;54.73;100761.44;5115334;28;20377;-73
2021/07/29 02:58:37;;;;;;;2.28;1.40;;;;;;;22.38;54.79;100757.97;5114979;28;20027;-73
2021/07/29 03:01:03;;;;;;;1.65;1.30;;;;;;;22.37;54.79;100764.13;5095656;28;20032;-73
2021/07/29 03:03:29;;;;;;;1.95;1.30;;;;;;;22.40;54.85;100765.84;5078899;28;20028;-72
2021/07/29 03:05:54;;;;;;;1.77;0.95;;;;;;;22.40;54.73;100764.06;5114110;28;20526;-73
2021/07/29 03:08:20;;;;;;;2.85;1.40;;;;;;;22.38;54.88;100765.00;5114044;28;20043;-73
2021/07/29 03:10:46;;;;;;;2.03;1.05;;;;;;;22.41;54.75;100776.34;5078695;28;20382;-73
2021/07/29 03:13:12;;;;;;;2.15;1.63;;;;;;;22.34;54.48;100771.22;5095887;28;20032;-76
2021/07/29 03:15:37;;;;;;;;;;;;;;;22.27;53.96;100781.03;5096075;28;20176;-76
2021/07/29 03:18:02;;;;;;;1.93;0.97;;;;;;;22.20;53.86;100768.88;5078593;28;20100;-76
2021/07/29 03:20:28;;;;;;;5.55;1.85;;;;;;;22.18;53.26;100769.84;5095611;28;20273;-76
2021/07/29 03:22:54;;;;;;;3.78;1.70;;;;;;;22.20;53.65;100776.78;5095705;28;20023;-76
2021/07/29 03:25:19;;;;;;;2.92;1.10;;;;;;;22.18;53.40;100778.63;5095682;28;20031;-76
2021/07/29 03:27:44;;;;;;;8.27;1.77;;;;;;;22.22;53.52;100780.25;5095844;28;20102;-77
2021/07/29 03:30:10;;;;;;;3.40;1.33;;;;;;;22.24;53.67;100767.06;5095687;28;20023;-74
2021/07/29 03:32:36;;;;;;;3.00;1.15;;;;;;;22.27;53.70;100765.25;5079125;28;20055;-73
2021/07/29 03:35:01;;;;;;;3.75;1.05;;;;;;;22.38;53.63;100776.41;5095461;28;20439;-73
2021/07/29 03:37:26;;;;;;;3.90;1.80;;;;;;;22.38;53.54;100771.13;5095418;28;20052;-72
2021/07/29 03:39:52;;;;;;;2.88;1.10;;;;;;;22.40;53.59;100776.38;5095354;28;20024;-73
2021/07/29 03:42:19;;;;;;;3.58;1.23;;;;;;;22.41;53.74;100778.09;5095380;28;20032;-75
2021/07/29 03:44:44;;;;;;;2.42;1.20;;;;;;;22.41;53.70;100778.97;5113486;28;20091;-74
2021/07/29 03:47:10;;;;;;;4.57;1.65;;;;;;;22.41;54.27;100776.34;5078603;28;20031;-74
2021/07/29 03:49:35;;;;;;;2.90;1.10;;;;;;;22.41;53.97;100772.84;5095136;28;20056;-73
2021/07/29 03:52:02;;;;;;;4.90;1.58;;;;;;;22.38;53.92;100773.78;5078468;28;20091;-73
2021/07/29 03:54:27;;;;;;;5.45;1.67;;;;;;;22.42;52.78;100772.81;5096776;28;20046;-73
2021/07/29 03:56:52;;;;;;;5.13;2.40;;;;;;;22.37;53.11;100773.81;5115058;28;20024;-73
2021/07/29 03:59:18;;;;;;;5.63;1.92;;;;;;;22.31;52.17;100772.19;5095556;28;20083;-73
2021/07/29 04:01:43;;;;;;;9.88;1.75;;;;;;;22.29;52.14;100771.34;5078475;28;20076;-72
2021/07/29 04:04:08;;;;;;;6.63;2.00;;;;;;;22.23;51.44;100775.88;5095564;28;20063;-72
2021/07/29 04:06:34;;;;;;;8.20;2.75;;;;;;;22.24;51.64;100788.13;5078339;28;20118;-75
2021/07/29 04:08:59;;;;;;;7.03;2.45;;;;;;;21.69;51.28;100778.69;5078167;28;20043;-73
2021/07/29 04:11:24;;;;;;;9.73;2.42;;;;;;;21.05;52.43;100790.31;5095137;28;20059;-70
2021/07/29 04:13:50;;;;;;;;;;;;;;;20.70;52.11;100793.50;5064238;28;20031;-71
2021/07/29 04:16:15;;;;;;;;;;;;;;;21.09;51.54;100796.41;5099095;28;20038;-71
2021/07/29 04:18:42;;;;;;;;;;;;;;;21.42;50.98;100802.91;5082095;28;19916;-72
2021/07/29 04:21:13;;;;;;;8.90;2.40;;;;;;;21.58;50.54;100793.81;5081981;28;19958;-70
2021/07/29 04:23:38;;;;;;;10.38;2.35;;;;;;;21.71;49.96;100798.81;5081617;28;20050;-70
2021/07/29 04:26:04;;;;;;;6.40;1.98;;;;;;;21.53;50.10;100791.28;5098500;28;20497;-70
2021/07/29 04:28:29;;;;;;;4.60;2.08;;;;;;;21.67;50.07;100805.06;5098463;28;20538;-71
2021/07/29 04:30:54;;;;;;;11.52;2.58;;;;;;;21.76;49.82;100788.22;5098264;28;20427;-72
2021/07/29 04:33:19;;;;;;;8.10;2.22;;;;;;;21.79;49.85;100785.53;5081287;28;20420;-71
2021/07/29 04:35:45;;;;;;;8.30;2.75;;;;;;;21.75;49.53;100795.25;5081411;28;20485;-71
2021/07/29 04:38:10;;;;;;;5.40;2.13;;;;;;;21.40;50.34;100805.56;5098211;28;20018;-72
2021/07/29 04:40:35;;;;;;;;;;;;;;;20.46;51.92;100807.00;5116665;28;20063;-73
2021/07/29 04:43:01;;;;;;;9.10;2.70;;;;;;;20.63;52.23;100812.91;5116640;28;19960;-74
2021/07/29 04:45:26;;;;;;;9.20;2.95;;;;;;;20.99;50.74;100800.94;5098121;28;20066;-73
2021/07/29 04:47:51;;;;;;;9.27;3.28;;;;;;;21.08;50.89;100813.06;5081111;28;20025;-77
2021/07/29 04:50:17;;;;;;;10.38;2.30;;;;;;;21.46;50.33;100808.06;5080626;28;20429;-71
2021/07/29 04:52:43;;;;;;;9.55;3.28;;;;;;;21.66;50.15;100808.59;5098363;28;20512;-73
2021/07/29 04:55:08;;;;;;;7.68;2.75;;;;;;;21.59;49.65;100804.31;5098096;28;20031;-72
2021/07/29 04:57:34;;;;;;;11.55;2.70;;;;;;;21.07;50.20;100806.06;5098296;28;20046;-72
2021/07/29 04:59:59;;;;;;;7.90;3.00;;;;;;;21.17;50.23;100798.00;5081057;28;20027;-72
2021/07/29 05:02:24;;;;;;;7.63;2.25;;;;;;;21.42;50.10;100795.88;5115932;28;20147;-71
2021/07/29 05:04:50;;;;;;;8.23;2.20;;;;;;;21.56;49.42;100804.34;5097908;28;20039;-71
2021/07/29 05:07:15;;;;;;;10.82;2.30;;;;;;;21.66;49.71;100795.44;5097873;28;20027;-72
2021/07/29 05:09:40;;;;;;;5.15;2.15;;;;;;;21.72;49.70;100786.53;5080667;28;20132;-71
2021/07/29 05:12:06;;;;;;;6.95;2.45;;;;;;;21.87;49.46;100801.16;5080883;28;20371;-72
2021/07/29 05:14:32;;;;;;;6.88;2.72;;;;;;;21.93;49.47;100796.66;5080667;28;20034;-72
2021/07/29 05:17:02;;;;;;;6.80;2.50;;;;;;;21.96;49.80;100806.22;5097512;28;20024;-71
2021/07/29 05:19:27;;;;;;;8.05;2.42;;;;;;;22.01;49.77;100810.56;5097417;28;20474;-71
2021/07/29 05:21:52;;;;;;;4.47;1.92;;;;;;;22.04;50.06;100807.00;5115565;28;20053;-73
2021/07/29 05:24:18;;;;;;;5.70;2.50;;;;;;;22.02;50.02;100801.75;5115794;28;20059;-71
2021/07/29 05:26:43;;;;;;;7.78;2.90;;;;;;;22.03;50.25;100800.00;5097627;28;20020;-71
2021/07/29 05:29:09;;;;;;;5.47;1.92;;;;;;;22.12;50.15;100812.97;5098682;28;20431;-71
2021/07/29 05:31:37;;;;;;;5.53;2.03;;;;;;;22.11;50.58;100813.88;5116994;28;20493;-72
2021/07/29 05:34:02;;;;;;;5.60;3.03;;;;;;;22.08;50.63;100832.34;5116656;28;20103;-73
2021/07/29 05:36:28;;;;;;;5.07;2.10;;;;;;;22.12;50.84;100823.50;5098050;28;20445;-72
2021/07/29 05:38:53;;;;;;;6.38;1.90;;;;;;;22.08;50.95;100816.56;5097553;28;20429;-72
2021/07/29 05:41:19;;;;;;;6.93;2.35;;;;;;;22.09;50.98;100811.25;5098098;28;20023;-72
2021/07/29 05:43:44;;;;;;;6.60;2.42;;;;;;;22.10;50.92;100820.03;5080688;28;20023;-72
2021/07/29 05:46:11;;;;;;;4.15;2.65;;;;;;;22.14;51.06;100823.47;5115192;28;20173;-72
2021/07/29 05:48:37;;;;;;;6.22;2.53;;;;;;;22.13;51.22;100822.59;5079837;28;20027;-72
2021/07/29 05:51:03;;;;;;;4.05;1.63;;;;;;;22.13;51.32;100825.25;5079883;28;20405;-72
2021/07/29 05:53:28;;;;;;;9.38;3.63;;;;;;;22.16;51.40;100822.56;5096715;28;20035;-72
2021/07/29 05:55:57;;;;;;;7.15;2.20;;;;;;;22.14;51.61;100823.47;5096741;28;20050;-71
2021/07/29 05:58:23;;;;;;;5.57;2.55;;;;;;;22.16;51.94;100833.09;5114883;28;20024;-72
2021/07/29 06:00:49;;;;;;;4.28;1.65;;;;;;;22.14;51.80;100832.25;5096650;28;20073;-72
2021/07/29 06:03:14;;;;;;;5.90;2.10;;;;;;;22.20;51.99;100832.09;5096632;28;20115;-72
2021/07/29 06:05:40;;;;;;;6.40;2.10;;;;;;;22.31;51.68;100834.53;5114958;28;20062;-72
2021/07/29 06:08:05;;;;;;;3.65;2.17;;;;;;;22.41;51.57;100839.59;5114656;28;20032;-72
2021/07/29 06:10:31;;;;;;;5.70;1.73;;;;;;;22.49;51.65;100841.16;5096421;28;20490;-72
2021/07/29 06:12:56;;;;;;;2.47;1.67;;;;;;;22.58;51.59;100844.50;5096639;28;20055;-72
2021/07/29 06:15:21;;;;;;;5.55;1.80;;;;;;;22.48;51.96;100849.97;5115040;28;20027;-72
2021/07/29 06:17:56;;;;;;;5.00;1.55;;;;;;;22.48;51.81;100847.34;5096498;28;20039;-72
2021/07/29 06:20:22;;;;;;;2.95;1.65;;;;;;;22.55;51.95;100855.09;5082703;28;20024;-71
2021/07/29 06:22:47;;;;;;;3.83;1.85;;;;;;;22.44;52.12;100852.69;5096116;28;20035;-72
2021/07/29 06:25:14;;;;;;;5.55;2.13;;;;;;;22.43;52.29;100860.63;5096364;28;20035;-72
2021/07/29 06:27:40;;;;;;;4.18;2.20;;;;;;;22.51;52.09;100869.22;5096288;28;20527;-72
2021/07/29 06:30:06;;;;;;;5.88;2.47;;;;;;;22.63;52.03;100860.19;5079181;28;20118;-72
2021/07/29 06:32:31;;;;;;;4.85;2.22;;;;;;;22.76;51.85;100864.31;5079324;28;20106;-72
2021/07/29 06:34:56;;;;;;;4.20;1.92;;;;;;;22.77;51.73;100860.78;5078868;28;20481;-72
2021/07/29 06:37:22;;;;;;;4.88;2.38;;;;;;;22.83;51.67;100871.22;5113958;28;20359;-72
2021/07/29 06:39:47;;;;;;;3.25;1.55;;;;;;;22.82;51.94;100873.88;5096325;28;20047;-72
2021/07/29 06:42:13;;;;;;;2.95;1.77;;;;;;;22.66;52.14;100858.38;5114158;28;20489;-72
2021/07/29 06:44:41;;;;;;;4.65;2.28;;;;;;;22.83;52.04;100863.31;5095794;28;20028;-72
2021/07/29 06:47:07;;;;;;;3.17;1.88;;;;;;;22.90;52.03;100861.38;5095865;28;20031;-72
2021/07/29 06:49:34;;;;;;;4.35;1.90;;;;;;;22.97;51.46;100863.88;5113714;28;20053;-74
2021/07/29 06:51:59;;;;;;;3.75;1.80;;;;;;;22.86;51.81;100844.75;5078959;28;20520;-74
2021/07/29 06:54:25;;;;;;;3.20;1.70;;;;;;;23.06;51.77;100868.91;5095842;28;20035;-74
2021/07/29 06:56:50;;;;;;;2.55;1.90;;;;;;;23.06;51.87;100879.47;5095985;28;20028;-74
2021/07/29 06:59:15;;;;;;;2.42;1.73;;;;;;;23.10;52.01;100880.28;5114293;28;20058;-74
2021/07/29 07:01:41;;;;;;;3.03;1.77;;;;;;;23.05;52.16;100882.13;5095846;28;20028;-74
2021/07/29 07:04:06;;;;;;;3.80;2.33;;;;;;;23.13;52.04;100886.31;5095868;28;20046;-74
2021/07/29 07:06:33;;;;;;;4.65;2.25;;;;;;;23.15;51.83;100884.50;5095740;28;20023;-74
2021/07/29 07:08:59;;;;;;;3.38;1.75;;;;;;;23.16;52.06;100880.09;5079117;28;20120;-74
2021/07/29 07:11:24;;;;;;;5.25;1.63;;;;;;;23.02;52.25;100883.06;5079385;28;20508;-74
2021/07/29 07:13:50;;;;;;;3.65;1.60;;;;;;;22.95;52.73;100889.41;5079045;28;20023;-74
2021/07/29 07:16:15;;;;;;;3.75;1.73;;;;;;;22.96;52.76;100906.09;5095993;28;20035;-74
2021/07/29 07:18:42;;;;;;;4.03;1.88;;;;;;;23.01;52.45;100907.69;5099834;28;20043;-74
2021/07/29 07:21:09;;;;;;;2.63;1.75;;;;;;;23.04;52.52;100905.00;5125859;28;20516;-74
2021/07/29 07:23:38;;;;;;;3.10;1.63;;;;;;;23.02;52.57;100903.28;5118017;28;20027;-73
2021/07/29 07:26:03;;;;;;;3.65;1.75;;;;;;;22.93;52.78;100906.16;5106380;28;20163;-74
2021/07/29 07:28:29;;;;;;;2.72;1.58;;;;;;;22.89;53.08;100909.75;5115077;28;20493;-74
2021/07/29 07:30:54;;;;;;;3.28;1.70;;;;;;;22.97;53.03;100906.06;5079335;28;20019;-74
2021/07/29 07:33:19;;;;;;;2.65;1.88;;;;;;;23.09;52.57;100907.53;5096119;28;20028;-74
2021/07/29 07:35:45;;;;;;;3.88;2.08;;;;;;;23.11;52.59;100913.63;5079358;28;20027;-74
2021/07/29 07:38:11;;;;;;;2.38;1.33;;;;;;;23.19;52.36;100921.38;5095975;28;20034;-74
2021/07/29 07:40:37;;;;;;;3.97;1.70;;;;;;;23.20;52.35;100908.16;5114122;28;20023;-75
2021/07/29 07:43:03;;;;;;;4.68;1.40;;;;;;;23.24;52.35;100925.63;5079081;28;20620;-75
2021/07/29 07:45:28;;;;;;;2.70;1.13;;;;;;;23.23;52.33;100912.50;5113994;28;20415;-74
2021/07/29 07:47:54;;;;;;;2.78;1.70;;;;;;;23.16;52.67;100928.47;5080100;28;20034;-74
2021/07/29 07:50:19;;;;;;;2.45;1.25;;;;;;;23.16;52.44;100914.41;5117897;28;20516;-74
2021/07/29 07:52:44;;;;;;;2.55;1.52;;;;;;;23.21;52.57;100927.50;5099696;28;20496;-74
2021/07/29 07:55:10;;;;;;;4.80;2.05;;;;;;;23.25;52.35;100930.00;5099687;28;20028;-74
2021/07/29 07:57:35;;;;;;;2.83;1.65;;;;;;;23.16;52.88;100928.47;5117713;28;20042;-74
2021/07/29 08:00:01;;;;;;;2.50;1.67;;;;;;;23.24;52.48;100936.19;5117549;28;20303;-75
2021/07/29 08:02:26;;;;;;;2.97;1.30;;;;;;;23.28;52.65;100926.44;5099591;28;20084;-74
2021/07/29 08:04:52;;;;;;;2.45;1.73;;;;;;;23.23;52.66;100936.25;5099205;28;20030;-74
2021/07/29 08:07:18;;;;;;;4.93;1.90;;;;;;;23.25;52.93;100926.50;5117150;28;20039;-74
2021/07/29 08:09:43;;;;;;;3.05;1.52;;;;;;;23.30;52.09;100935.19;5098858;28;20019;-74
2021/07/29 08:12:09;;;;;;;2.47;1.52;;;;;;;23.29;52.47;100930.81;5099105;28;20473;-74
2021/07/29 08:14:36;;;;;;;5.43;1.42;;;;;;;23.31;52.35;100935.16;5099081;28;20035;-74
2021/07/29 08:17:03;;;;;;;3.42;1.77;;;;;;;23.29;52.53;100928.19;5098977;28;20051;-75
2021/07/29 08:19:29;;;;;;;1.95;1.75;;;;;;;23.30;52.58;100936.06;5098193;28;20059;-75
2021/07/29 08:21:54;;;;;;;3.75;1.90;;;;;;;23.28;52.90;100939.63;5098970;28;20390;-75
2021/07/29 08:24:20;;;;;;;2.85;1.48;;;;;;;23.26;52.85;100944.06;5116988;28;20028;-75
2021/07/29 08:26:45;;;;;;;2.63;1.80;;;;;;;23.25;52.92;100950.25;5098634;28;20035;-74
2021/07/29 08:29:10;;;;;;;2.75;1.33;;;;;;;23.30;52.53;100948.38;5098651;28;20036;-74
2021/07/29 08:31:36;;;;;;;2.22;1.20;;;;;;;23.29;52.53;100938.72;5098697;28;20039;-74
2021/07/29 08:34:01;;;;;;;2.80;1.13;;;;;;;23.28;52.42;100942.28;5098607;28;20028;-74
2021/07/29 08:36:27;;;;;;;3.13;1.40;;;;;;;23.29;52.70;100944.00;5116623;28;20031;-74
2021/07/29 08:38:53;;;;;;;2.95;1.33;;;;;;;23.26;52.43;100939.66;5098454;28;20027;-74
2021/07/29 08:41:19;;;;;;;3.08;1.58;;;;;;;23.28;52.68;100951.06;5116677;28;20026;-74
2021/07/29 08:43:45;;;;;;;1.52;1.10;;;;;;;23.32;52.49;100944.81;5098977;28;20038;-74
2021/07/29 08:46:17;;;;;;;2.63;1.45;;;;;;;23.33;52.63;100949.19;5118120;28;20027;-74
2021/07/29 08:48:52;;;;;;;4.45;1.45;;;;;;;23.28;52.63;100942.28;5084128;28;20043;-75
2021/07/29 08:51:20;;;;;;;2.08;1.10;;;;;;;23.22;52.87;100958.25;5117398;28;20514;-75
2021/07/29 08:53:51;;;;;;;2.30;1.20;;;;;;;23.23;52.84;100963.50;5083277;28;20508;-75
2021/07/29 08:56:18;;;;;;;2.83;1.42;;;;;;;23.16;52.92;100962.75;5100294;28;20057;-75
2021/07/29 08:58:45;;;;;;;2.53;1.83;;;;;;;23.14;53.06;100961.91;5081347;28;20441;-74
2021/07/29 09:01:14;;;;;;;2.60;1.48;;;;;;;23.16;53.11;100967.16;5098153;28;20385;-75
2021/07/29 09:03:41;;;;;;;1.92;1.10;;;;;;;23.17;52.98;100963.63;5098418;28;20033;-75
2021/07/29 09:06:10;;;;;;;2.08;1.20;;;;;;;23.22;53.02;100958.25;5116276;28;20055;-75
2021/07/29 09:08:45;;;;;;;3.00;1.70;;;;;;;23.17;53.06;100972.41;5098512;28;20027;-75
2021/07/29 09:11:38;;;;;;;2.13;1.17;;;;;;;23.11;53.26;100975.16;5097756;28;20075;-74
2021/07/29 09:14:21;;;;;;;2.55;1.23;;;;;;;23.03;53.18;100961.28;5097559;28;20028;-74
2021/07/29 09:17:05;;;;;;;2.87;1.40;;;;;;;23.01;53.20;100959.59;5098403;28;20035;-75
2021/07/29 09:19:38;;;;;;;3.33;1.90;;;;;;;23.15;53.07;100971.56;5116339;28;20483;-75
2021/07/29 09:22:08;;;;;;;1.77;1.00;;;;;;;23.11;53.07;100976.94;5115795;28;20043;-75
2021/07/29 09:24:33;;;;;;;2.67;1.30;;;;;;;23.05;53.21;100982.38;5097431;28;20027;-75
2021/07/29 09:26:59;;;;;;;3.60;1.38;;;;;;;23.03;53.42;100968.34;5097562;28;20147;-75
2021/07/29 09:29:27;;;;;;;3.03;1.58;;;;;;;22.99;53.33;100969.28;5115579;28;20051;-75
2021/07/29 09:32:05;;;;;;;2.17;1.30;;;;;;;22.97;53.64;100965.84;5097336;28;20022;-75
2021/07/29 09:34:50;;;;;;;3.17;1.38;;;;;;;22.98;53.35;100978.13;5115597;28;20023;-75
2021/07/29 09:37:19;;;;;;;4.50;1.67;;;;;;;23.00;53.48;100990.38;5115509;28;20073;-75
2021/07/29 09:39:57;;;;;;;2.63;1.35;;;;;;;22.98;53.66;100991.31;5115602;28;20462;-75
2021/07/29 09:42:24;;;;;;;2.13;1.45;;;;;;;22.95;53.51;100986.09;5096991;28;20101;-75
2021/07/29 09:44:51;;;;;;;2.90;1.00;;;;;;;23.00;53.61;101000.03;5063849;28;20035;-75
2021/07/29 09:47:21;;;;;;;2.30;1.25;;;;;;;23.00;53.46;100994.78;5097226;28;20354;-75
2021/07/29 09:49:48;;;;;;;2.05;1.30;;;;;;;23.01;53.60;100992.09;5080976;28;20134;-75
2021/07/29 09:52:14;;;;;;;5.53;1.73;;;;;;;23.01;53.43;100997.38;5096836;28;20124;-75
2021/07/29 09:54:42;;;;;;;3.65;1.60;;;;;;;23.00;53.42;101005.31;5115171;28;20047;-75
2021/07/29 09:57:08;;;;;;;2.20;1.25;;;;;;;23.04;53.57;100999.09;5096795;28;20029;-75
2021/07/29 09:59:35;;;;;;;2.28;1.40;;;;;;;22.98;53.48;100994.78;5114861;28;20111;-75
2021/07/29 10:02:02;;;;;;;2.70;1.63;;;;;;;22.97;53.49;100984.31;5114955;28;20023;-75
2021/07/29 10:04:36;;;;;;;2.55;1.50;;;;;;;23.01;53.46;101004.41;5114927;28;20027;-75
2021/07/29 10:07:07;;;;;;;1.75;1.02;;;;;;;23.02;53.33;101009.66;5114863;28;20023;-75
2021/07/29 10:09:39;;;;;;;3.35;1.73;;;;;;;23.04;53.24;101004.38;5096347;27;20097;-75
2021/07/29 10:12:07;;;;;;;2.10;1.17;;;;;;;23.00;53.58;101000.03;5114188;28;20031;-75
2021/07/29 10:14:50;;;;;;;1.63;1.23;;;;;;;23.04;53.45;101007.88;5117363;28;20066;-75
2021/07/29 10:17:16;;;;;;;1.98;1.20;;;;;;;23.06;53.39;101014.00;5096380;28;20062;-74
2021/07/29 10:20:15;;;;;;;1.40;1.00;;;;;;;23.03;53.32;101003.50;5096458;28;20028;-74
2021/07/29 10:22:41;;;;;;;2.15;1.63;;;;;;;23.05;53.43;101004.34;5090069;28;20545;-72
2021/07/29 10:25:07;;;;;;;2.38;1.55;;;;;;;23.02;53.52;101012.31;5079761;28;20031;-72
2021/07/29 10:27:33;;;;;;;1.77;1.13;;;;;;;23.03;53.46;101019.31;5096488;28;20359;-72
2021/07/29 10:30:20;;;;;;;3.95;1.33;;;;;;;23.04;53.42;101013.16;5114272;28;20351;-72
2021/07/29 10:32:51;;;;;;;1.77;1.25;;;;;;;23.02;53.69;101020.22;5096139;28;20096;-74
2021/07/29 10:35:25;;;;;;;3.08;1.63;;;;;;;23.05;53.52;101024.56;5114418;28;20035;-75
2021/07/29 10:37:53;;;;;;;1.73;1.30;;;;;;;23.04;53.40;101026.34;5114418;28;20481;-74
2021/07/29 10:40:31;;;;;;;2.83;1.30;;;;;;;23.04;53.45;101025.47;5114366;28;20359;-74
2021/07/29 10:42:56;;;;;;;1.80;1.08;;;;;;;23.04;53.42;101023.69;5114299;28;20027;-74
2021/07/29 10:45:49;;;;;;;2.20;1.30;;;;;;;23.05;53.63;101028.06;5079362;28;20034;-74
2021/07/29 10:49:02;;;;;;;2.28;1.13;;;;;;;23.06;53.68;101021.03;5114278;28;20051;-74
2021/07/29 10:51:27;;;;;;;4.07;1.83;;;;;;;23.03;53.35;101015.81;5114074;28;20044;-73
2021/07/29 10:53:56;;;;;;;2.28;1.27;;;;;;;23.05;53.51;101027.22;5096143;28;20431;-74
2021/07/29 10:56:23;;;;;;;1.98;1.13;;;;;;;23.05;53.43;101028.06;5116046;28;20024;-74
2021/07/29 10:58:50;;;;;;;2.63;1.10;;;;;;;22.95;53.58;101005.44;5122335;28;20522;-74
2021/07/29 11:01:17;;;;;;;2.30;1.20;;;;;;;23.05;53.43;101025.44;5120345;28;20035;-73
2021/07/29 11:03:51;;;;;;;1.85;1.30;;;;;;;23.02;53.42;101011.44;5102481;28;20110;-73
2021/07/29 11:06:29;;;;;;;2.13;1.42;;;;;;;23.03;53.76;101027.22;5081574;28;20034;-73
2021/07/29 11:08:54;;;;;;;2.15;1.25;;;;;;;23.03;53.84;101029.88;5114228;28;20030;-74
2021/07/29 11:11:20;;;;;;;1.23;0.93;;;;;;;23.00;53.72;101023.78;5096153;28;20459;-73
2021/07/29 11:13:46;;;;;;;2.55;1.40;;;;;;;23.04;53.52;101033.38;5096169;28;20111;-74
2021/07/29 11:16:12;;;;;;;2.22;1.40;;;;;;;23.01;53.61;101015.84;5096082;28;20024;-74
2021/07/29 11:18:38;;;;;;;1.90;1.15;;;;;;;23.02;53.82;101027.25;5095557;28;20043;-73
2021/07/29 11:21:15;;;;;;;2.20;1.40;;;;;;;22.98;53.63;101018.53;5113901;28;20019;-73
2021/07/29 11:23:40;;;;;;;1.70;1.20;;;;;;;23.03;53.82;101026.38;5083174;28;20031;-74
2021/07/29 11:26:06;;;;;;;4.28;1.50;;;;;;;23.03;53.64;101037.78;5099890;28;20047;-74
2021/07/29 11:28:32;;;;;;;1.95;1.10;;;;;;;23.00;53.61;101032.56;5099951;28;20035;-74